Time;durP1;ratioP1;P1;durP2;ratioP2;P2;SDS_P1;SDS_P2;PMS_P1;PMS_P2;Temp;Humidity;BMP_temperature;BMP_pressure;BME280_temperature;BME280_humidity;BME280_pressure;Samples;Min_cycle;Max_cycle;Signal;HPM_P1;HPM_P2
2024/01/19 00:01:05;;;;;;;;;;;-0.30;99.90;;;;;;5087670;28;20367;-58
2024/01/19 00:03:31;;;;;;;;;;;-0.30;99.90;;;;;;5085286;28;19977;-58
2024/01/19 00:05:56;;;;;;;;;;;-0.30;99.90;;;;;;5063126;28;20145;-57
2024/01/19 00:08:22;;;;;;;;;;;-0.30;99.90;;;;;;5088035;28;19919;-58
2024/01/19 00:10:47;;;;;;;;;;;-0.30;99.90;;;;;;5053360;28;19928;-58
2024/01/19 00:13:13;;;;;;;;;;;-0.20;99.90;;;;;;5085619;28;19930;-58
2024/01/19 00:15:39;;;;;;;;;;;-0.20;99.90;;;;;;5067633;28;20027;-58
2024/01/19 00:18:04;;;;;;;;;;;-0.20;99.90;;;;;;5082982;28;20660;-58
2024/01/19 00:20:30;;;;;;;;;;;-0.10;99.90;;;;;;5081589;28;20609;-58
2024/01/19 00:22:55;;;;;;;;;;;-0.10;99.90;;;;;;5083459;28;20020;-56
2024/01/19 00:25:21;;;;;;;;;;;0.00;99.90;;;;;;5078100;28;19923;-57
2024/01/19 00:27:47;;;;;;;;;;;0.10;99.90;;;;;;5083858;28;19924;-57
2024/01/19 00:30:12;;;;;;;;;;;0.10;99.90;;;;;;5077691;28;19927;-57
2024/01/19 00:32:38;;;;;;;;;;;0.20;99.90;;;;;;5082985;28;19924;-58
2024/01/19 00:35:04;;;;;;;;;;;0.20;99.90;;;;;;5053533;28;20612;-57
2024/01/19 00:37:29;;;;;;;;;;;0.20;99.90;;;;;;5082086;28;19932;-56
2024/01/19 00:39:55;;;;;;;;;;;0.30;99.90;;;;;;5060325;28;20485;-58
2024/01/19 00:42:20;;;;;;;;;;;0.30;99.90;;;;;;5073702;28;19928;-57
2024/01/19 00:44:46;;;;;;;;;;;0.30;99.90;;;;;;5080742;28;20449;-58
2024/01/19 00:47:11;;;;;;;;;;;0.30;99.90;;;;;;5061889;28;20011;-58
2024/01/19 00:49:37;;;;;;;;;;;0.30;99.90;;;;;;5079105;28;20388;-57
2024/01/19 00:52:03;;;;;;;;;;;0.30;99.90;;;;;;5081318;28;19919;-57
2024/01/19 00:54:28;;;;;;;;;;;0.30;99.90;;;;;;5095046;28;19924;-57
2024/01/19 00:56:54;;;;;;;;;;;0.40;99.90;;;;;;5097230;28;19926;-57
2024/01/19 00:59:19;;;;;;;;;;;0.50;99.90;;;;;;5097561;28;19938;-57
2024/01/19 01:01:45;;;;;;;;;;;0.40;99.90;;;;;;5074559;28;19950;-58
2024/01/19 01:04:11;;;;;;;;;;;0.40;99.90;;;;;;5092648;28;20468;-56
2024/01/19 01:06:36;;;;;;;;;;;0.30;99.90;;;;;;5095116;28;19920;-58
2024/01/19 01:09:03;;;;;;;;;;;0.30;99.90;;;;;;5070980;28;19924;-56
2024/01/19 01:11:28;;;;;;;;;;;0.30;99.90;;;;;;5070447;28;19928;-57
2024/01/19 01:13:54;;;;;;;;;;;0.30;99.90;;;;;;5075866;28;20028;-58
2024/01/19 01:16:20;;;;;;;;;;;0.30;99.90;;;;;;5071753;28;20661;-58
2024/01/19 01:18:45;;;;;;;;;;;0.30;99.90;;;;;;5053025;28;19943;-58
2024/01/19 01:21:11;;;;;;;;;;;0.20;99.90;;;;;;5073228;28;19936;-58
2024/01/19 01:23:36;;;;;;;;;;;0.20;99.90;;;;;;5082020;28;19928;-58
2024/01/19 01:26:02;;;;;;;;;;;0.20;99.90;;;;;;5095443;28;24045;-57
2024/01/19 01:28:28;;;;;;;;;;;0.10;99.90;;;;;;5085702;28;19973;-57
2024/01/19 01:30:54;;;;;;;;;;;0.10;99.90;;;;;;5075221;28;19927;-58
2024/01/19 01:33:20;;;;;;;;;;;0.00;99.90;;;;;;5083453;28;19928;-58
2024/01/19 01:35:45;;;;;;;;;;;0.00;99.90;;;;;;5079099;28;19934;-57
2024/01/19 01:38:11;;;;;;;;;;;0.00;99.90;;;;;;5081079;28;23955;-57
2024/01/19 01:40:36;;;;;;;;;;;-0.10;99.90;;;;;;5078953;28;19928;-58
2024/01/19 01:43:03;;;;;;;;;;;-0.10;99.90;;;;;;5056881;28;20006;-57
2024/01/19 01:45:29;;;;;;;;;;;-0.20;99.90;;;;;;5076484;28;20012;-58
2024/01/19 01:47:54;;;;;;;;;;;-0.20;99.90;;;;;;5080498;28;19924;-58
2024/01/19 01:50:20;;;;;;;;;;;-0.20;99.90;;;;;;5074813;28;19934;-57
2024/01/19 01:52:46;;;;;;;;;;;-0.30;99.90;;;;;;5052250;28;19931;-57
2024/01/19 01:55:13;;;;;;;;;;;-0.30;99.90;;;;;;5082089;28;20281;-58
2024/01/19 01:57:39;;;;;;;;;;;-0.30;99.90;;;;;;5080878;28;20004;-57
2024/01/19 02:00:06;;;;;;;;;;;-0.30;99.90;;;;;;5081166;28;20310;-58
2024/01/19 02:02:32;;;;;;;;;;;-0.30;99.90;;;;;;5061690;28;19928;-56
2024/01/19 02:04:57;;;;;;;;;;;-0.30;99.90;;;;;;5055946;28;19927;-58
2024/01/19 02:07:23;;;;;;;;;;;-0.30;99.90;;;;;;5077978;28;20428;-56
2024/01/19 02:09:48;;;;;;;;;;;-0.30;99.90;;;;;;5075188;28;19928;-57
2024/01/19 02:12:15;;;;;;;;;;;-0.20;99.90;;;;;;5074898;28;20047;-56
2024/01/19 02:14:40;;;;;;;;;;;-0.20;99.90;;;;;;5057910;28;20027;-58
2024/01/19 02:17:06;;;;;;;;;;;-0.10;99.90;;;;;;5085453;28;19919;-56
2024/01/19 02:19:35;;;;;;;;;;;0.20;99.90;;;;;;5081146;28;19935;-58
2024/01/19 02:22:02;;;;;;;;;;;-0.10;99.90;;;;;;5079471;28;19966;-56
2024/01/19 02:24:27;;;;;;;;;;;0.00;99.90;;;;;;5077197;28;19931;-58
2024/01/19 02:26:55;;;;;;;;;;;0.00;99.90;;;;;;5081146;28;19924;-58
2024/01/19 02:29:21;;;;;;;;;;;0.00;99.90;;;;;;5083834;28;19927;-57
2024/01/19 02:31:46;;;;;;;;;;;0.00;99.90;;;;;;5079572;28;19927;-57
2024/01/19 02:34:12;;;;;;;;;;;0.10;99.90;;;;;;5078795;28;19927;-58
2024/01/19 02:36:37;;;;;;;;;;;0.00;99.90;;;;;;5054864;28;19928;-58
2024/01/19 02:39:05;;;;;;;;;;;0.00;99.90;;;;;;5078953;28;19931;-57
2024/01/19 02:41:31;;;;;;;;;;;0.00;99.90;;;;;;5081862;28;21508;-57
2024/01/19 02:43:56;;;;;;;;;;;-0.10;99.90;;;;;;5081118;28;19927;-57
2024/01/19 02:46:22;;;;;;;;;;;-0.10;99.90;;;;;;5080109;28;19927;-57
2024/01/19 02:48:47;;;;;;;;;;;-0.10;99.90;;;;;;5056390;28;19928;-58
2024/01/19 02:51:13;;;;;;;;;;;-0.20;99.90;;;;;;5066144;28;19934;-56
2024/01/19 02:53:39;;;;;;;;;;;-0.20;99.90;;;;;;5068585;28;19924;-57
2024/01/19 02:56:05;;;;;;;;;;;-0.30;99.90;;;;;;5079587;28;20349;-57
2024/01/19 02:58:31;;;;;;;;;;;-0.30;99.90;;;;;;5082462;28;19932;-57
2024/01/19 03:00:57;;;;;;;;;;;-0.40;99.90;;;;;;5078939;28;20004;-58
2024/01/19 03:03:22;;;;;;;;;;;-0.40;99.90;;;;;;5082700;28;19973;-57
2024/01/19 03:05:48;;;;;;;;;;;-0.50;99.90;;;;;;5079771;28;20060;-56
2024/01/19 03:08:13;;;;;;;;;;;-0.50;99.90;;;;;;5063678;28;20405;-57
2024/01/19 03:10:39;;;;;;;;;;;-0.50;99.90;;;;;;5079192;28;20022;-57
2024/01/19 03:13:04;;;;;;;;;;;-0.60;99.90;;;;;;5079788;28;19924;-58
2024/01/19 03:15:30;;;;;;;;;;;-0.70;99.90;;;;;;5074171;28;19932;-57
2024/01/19 03:17:55;;;;;;;;;;;-0.70;99.90;;;;;;5063393;28;19928;-57
2024/01/19 03:20:21;;;;;;;;;;;-0.70;99.90;;;;;;5059557;28;19926;-57
2024/01/19 03:22:47;;;;;;;;;;;-0.70;99.90;;;;;;5081595;28;20066;-58
2024/01/19 03:25:12;;;;;;;;;;;-0.70;99.90;;;;;;5077629;28;19954;-57
2024/01/19 03:27:38;;;;;;;;;;;-0.80;99.90;;;;;;5081970;28;19952;-58
2024/01/19 03:30:04;;;;;;;;;;;-0.70;99.90;;;;;;5055445;28;20042;-58
2024/01/19 03:32:29;;;;;;;;;;;-0.80;99.90;;;;;;5082541;28;20662;-58
2024/01/19 03:34:55;;;;;;;;;;;-0.80;99.90;;;;;;5055915;28;19971;-57
2024/01/19 03:37:21;;;;;;;;;;;-0.70;99.90;;;;;;5055903;28;19924;-58
2024/01/19 03:39:46;;;;;;;;;;;-0.70;99.90;;;;;;5057627;28;20431;-57
2024/01/19 03:42:12;;;;;;;;;;;-0.70;99.90;;;;;;5081174;28;19928;-58
2024/01/19 03:44:39;;;;;;;;;;;-0.60;99.90;;;;;;5079172;28;19994;-57
2024/01/19 03:47:04;;;;;;;;;;;-0.60;99.90;;;;;;5075526;28;20383;-58
2024/01/19 03:49:30;;;;;;;;;;;-0.60;99.90;;;;;;5075151;28;19935;-58
2024/01/19 03:51:56;;;;;;;;;;;-0.60;99.90;;;;;;5077023;28;19934;-57
2024/01/19 03:54:21;;;;;;;;;;;-0.60;99.90;;;;;;5049097;28;20674;-58
2024/01/19 03:56:47;;;;;;;;;;;-0.60;99.90;;;;;;5066622;28;20026;-58
2024/01/19 03:59:13;;;;;;;;;;;-0.60;99.90;;;;;;5090876;28;20431;-58
2024/01/19 04:01:38;;;;;;;;;;;-0.60;99.90;;;;;;5085752;28;19927;-58
2024/01/19 04:04:04;;;;;;;;;;;-0.60;99.90;;;;;;5073299;28;19924;-58
2024/01/19 04:06:29;;;;;;;;;;;-0.60;99.90;;;;;;5074941;28;23851;-57
2024/01/19 04:08:55;;;;;;;;;;;-0.60;99.90;;;;;;5089766;28;20425;-57
2024/01/19 04:11:20;;;;;;;;;;;-0.60;99.90;;;;;;5090130;28;19923;-57
2024/01/19 04:13:46;;;;;;;;;;;-0.60;99.90;;;;;;5070216;28;19927;-58
2024/01/19 04:16:12;;;;;;;;;;;-0.60;99.90;;;;;;5060261;28;20046;-57
2024/01/19 04:18:37;;;;;;;;;;;-0.60;99.90;;;;;;5062062;28;19931;-58
2024/01/19 04:21:03;;;;;;;;;;;-0.60;99.90;;;;;;5073825;28;20014;-58
2024/01/19 04:23:28;;;;;;;;;;;-0.70;99.90;;;;;;5081305;28;19932;-57
2024/01/19 04:25:54;;;;;;;;;;;-0.70;99.90;;;;;;5080183;28;20393;-58
2024/01/19 04:28:19;;;;;;;;;;;-0.70;99.90;;;;;;5060685;28;20059;-58
2024/01/19 04:30:45;;;;;;;;;;;-0.70;99.90;;;;;;5083618;28;19928;-58
2024/01/19 04:33:10;;;;;;;;;;;-0.70;99.90;;;;;;5074555;28;19930;-58
2024/01/19 04:35:36;;;;;;;;;;;-0.70;99.90;;;;;;5066322;28;19927;-58
2024/01/19 04:38:02;;;;;;;;;;;-0.70;99.90;;;;;;5086762;28;19931;-57
2024/01/19 04:40:27;;;;;;;;;;;-0.70;99.90;;;;;;5079217;28;19973;-57
2024/01/19 04:42:53;;;;;;;;;;;-0.80;99.90;;;;;;5078189;28;20505;-58
2024/01/19 04:45:18;;;;;;;;;;;-0.80;99.90;;;;;;5077200;28;19923;-57
2024/01/19 04:47:44;;;;;;;;;;;-0.80;99.90;;;;;;5071645;28;19924;-56
2024/01/19 04:50:09;;;;;;;;;;;-0.80;99.90;;;;;;5089282;28;20488;-58
2024/01/19 04:52:35;;;;;;;;;;;-0.80;99.90;;;;;;5092092;28;19924;-58
2024/01/19 04:55:01;;;;;;;;;;;-0.90;99.90;;;;;;5091367;28;20022;-57
2024/01/19 04:57:27;;;;;;;;;;;-0.90;99.90;;;;;;5094408;28;19928;-58
2024/01/19 04:59:53;;;;;;;;;;;-0.90;99.90;;;;;;5096179;28;19934;-56
2024/01/19 05:02:19;;;;;;;;;;;-0.90;99.90;;;;;;5067389;28;19989;-58
2024/01/19 05:04:44;;;;;;;;;;;-1.00;99.90;;;;;;5056930;28;22761;-57
2024/01/19 05:07:10;;;;;;;;;;;-1.00;99.90;;;;;;5076407;28;20023;-58
2024/01/19 05:09:35;;;;;;;;;;;-1.00;99.90;;;;;;5078126;28;19967;-56
2024/01/19 05:12:01;;;;;;;;;;;-1.00;99.90;;;;;;5076648;28;19928;-56
2024/01/19 05:14:26;;;;;;;;;;;-1.00;99.90;;;;;;5060019;28;19928;-58
2024/01/19 05:16:52;;;;;;;;;;;-1.00;99.90;;;;;;5080419;28;19950;-58
2024/01/19 05:19:18;;;;;;;;;;;-1.00;99.90;;;;;;5083131;28;19943;-58
2024/01/19 05:21:43;;;;;;;;;;;-1.00;99.90;;;;;;5068292;28;19923;-58
2024/01/19 05:24:09;;;;;;;;;;;-1.00;99.90;;;;;;5058435;28;20288;-58
2024/01/19 05:26:34;;;;;;;;;;;-1.00;99.90;;;;;;5084493;28;19984;-56
2024/01/19 05:29:00;;;;;;;;;;;-1.00;99.90;;;;;;5084824;28;19935;-57
2024/01/19 05:31:25;;;;;;;;;;;-0.90;99.90;;;;;;5076601;28;20331;-58
2024/01/19 05:33:51;;;;;;;;;;;-0.90;99.90;;;;;;5081047;28;20038;-58
2024/01/19 05:36:17;;;;;;;;;;;-0.90;99.90;;;;;;5079754;28;19968;-57
2024/01/19 05:38:42;;;;;;;;;;;-0.90;99.90;;;;;;5083643;28;19931;-58
2024/01/19 05:41:08;;;;;;;;;;;-0.90;99.90;;;;;;5069276;28;19962;-57
2024/01/19 05:43:33;;;;;;;;;;;-0.90;99.90;;;;;;5062516;28;19924;-58
2024/01/19 05:45:59;;;;;;;;;;;-0.90;99.90;;;;;;5088507;28;19924;-56
2024/01/19 05:48:25;;;;;;;;;;;-0.90;99.90;;;;;;5053180;28;19923;-57
2024/01/19 05:50:50;;;;;;;;;;;-0.90;99.90;;;;;;5082782;28;20413;-58
2024/01/19 05:53:16;;;;;;;;;;;-0.90;99.90;;;;;;5069643;28;19927;-58
2024/01/19 05:55:42;;;;;;;;;;;-0.90;99.90;;;;;;5076435;28;19978;-58
2024/01/19 05:58:08;;;;;;;;;;;-1.00;99.90;;;;;;5080932;28;19981;-57
2024/01/19 06:00:34;;;;;;;;;;;-1.00;99.90;;;;;;5076522;28;20290;-57
2024/01/19 06:02:59;;;;;;;;;;;-1.00;99.90;;;;;;5081633;28;20350;-59
2024/01/19 06:05:25;;;;;;;;;;;-1.00;99.90;;;;;;5075584;28;19928;-58
2024/01/19 06:07:50;;;;;;;;;;;-1.00;99.90;;;;;;5074348;28;20578;-58
2024/01/19 06:10:16;;;;;;;;;;;-0.90;99.90;;;;;;5074707;28;19928;-58
2024/01/19 06:12:41;;;;;;;;;;;-0.90;99.90;;;;;;5083344;28;19996;-58
2024/01/19 06:15:07;;;;;;;;;;;-0.90;99.90;;;;;;5063049;28;19955;-56
2024/01/19 06:17:33;;;;;;;;;;;-0.70;99.90;;;;;;5084283;28;19945;-57
2024/01/19 06:19:58;;;;;;;;;;;-0.80;99.90;;;;;;5089869;28;19951;-58
2024/01/19 06:22:24;;;;;;;;;;;-0.80;99.90;;;;;;5079454;28;20022;-58
2024/01/19 06:24:54;;;;;;;;;;;-0.80;99.90;;;;;;5081128;28;19924;-57
2024/01/19 06:27:20;;;;;;;;;;;-0.90;99.90;;;;;;5079726;28;19958;-57
2024/01/19 06:29:46;;;;;;;;;;;-0.90;99.90;;;;;;5073331;28;19967;-57
2024/01/19 06:32:13;;;;;;;;;;;-1.00;99.90;;;;;;5070320;28;19928;-58
2024/01/19 06:34:40;;;;;;;;;;;-1.00;99.90;;;;;;5046403;28;19924;-58
2024/01/19 06:37:05;;;;;;;;;;;-1.00;99.90;;;;;;5071775;28;19936;-58
2024/01/19 06:39:31;;;;;;;;;;;-1.10;99.90;;;;;;5058548;28;20222;-58
2024/01/19 06:41:57;;;;;;;;;;;-1.10;99.90;;;;;;5059863;28;20472;-58
2024/01/19 06:44:22;;;;;;;;;;;-1.10;99.90;;;;;;5071684;28;20019;-58
2024/01/19 06:46:48;;;;;;;;;;;-1.10;99.90;;;;;;5080154;28;19966;-58
2024/01/19 06:49:14;;;;;;;;;;;-1.10;99.90;;;;;;5074240;28;19957;-58
2024/01/19 06:51:39;;;;;;;;;;;-1.10;99.90;;;;;;5080661;28;19935;-58
2024/01/19 06:54:05;;;;;;;;;;;-1.10;99.90;;;;;;5073253;28;19928;-57
2024/01/19 06:56:30;;;;;;;;;;;-1.20;99.90;;;;;;5076387;28;20081;-58
2024/01/19 06:58:56;;;;;;;;;;;-1.20;99.90;;;;;;5069426;28;19972;-58
2024/01/19 07:01:23;;;;;;;;;;;-1.30;99.90;;;;;;5075104;28;20219;-58
2024/01/19 07:03:48;;;;;;;;;;;-1.30;99.90;;;;;;5073673;28;19935;-58
2024/01/19 07:06:14;;;;;;;;;;;-1.30;99.90;;;;;;5073644;28;19924;-58
2024/01/19 07:08:40;;;;;;;;;;;-1.30;99.90;;;;;;5056786;28;19928;-58
2024/01/19 07:11:05;;;;;;;;;;;-1.30;99.90;;;;;;5081630;28;20845;-58
2024/01/19 07:13:31;;;;;;;;;;;-1.30;99.90;;;;;;5072881;28;20279;-58
2024/01/19 07:15:56;;;;;;;;;;;-1.40;99.90;;;;;;5076026;28;19927;-56
2024/01/19 07:18:22;;;;;;;;;;;-1.40;99.90;;;;;;5071351;28;19978;-57
2024/01/19 07:20:47;;;;;;;;;;;-1.40;99.90;;;;;;5072730;28;20391;-57
2024/01/19 07:23:13;;;;;;;;;;;-1.40;99.90;;;;;;5064088;28;19928;-56
2024/01/19 07:25:39;;;;;;;;;;;-1.40;99.90;;;;;;5070080;28;20511;-57
2024/01/19 07:28:05;;;;;;;;;;;-1.40;99.90;;;;;;5073067;28;19927;-57
2024/01/19 07:30:31;;;;;;;;;;;-1.30;99.90;;;;;;5069461;28;20162;-57
2024/01/19 07:32:57;;;;;;;;;;;-1.30;99.90;;;;;;5066680;28;19984;-58
2024/01/19 07:35:23;;;;;;;;;;;-1.30;99.90;;;;;;5085125;28;19941;-58
2024/01/19 07:37:48;;;;;;;;;;;-1.30;99.90;;;;;;5089231;28;20376;-58
2024/01/19 07:40:14;;;;;;;;;;;-1.20;99.90;;;;;;5068096;28;19920;-57
2024/01/19 07:42:39;;;;;;;;;;;-1.20;99.90;;;;;;5072324;28;19927;-58
2024/01/19 07:45:05;;;;;;;;;;;-1.20;99.90;;;;;;5088619;28;19924;-59
2024/01/19 07:47:32;;;;;;;;;;;-1.10;99.90;;;;;;5066889;28;19927;-58
2024/01/19 07:49:58;;;;;;;;;;;-1.10;99.90;;;;;;5060956;28;19928;-57
2024/01/19 07:52:23;;;;;;;;;;;-1.10;99.90;;;;;;5081885;28;19939;-57
2024/01/19 07:54:49;;;;;;;;;;;-1.10;99.90;;;;;;5087126;28;20776;-57
2024/01/19 07:57:14;;;;;;;;;;;-1.10;99.90;;;;;;5089272;28;20034;-57
2024/01/19 07:59:41;;;;;;;;;;;-1.00;99.90;;;;;;5066964;28;20321;-58
2024/01/19 08:02:07;;;;;;;;;;;-0.90;99.90;;;;;;5094716;28;20386;-57
2024/01/19 08:04:33;;;;;;;;;;;-0.90;99.90;;;;;;5071731;28;20054;-56
2024/01/19 08:06:59;;;;;;;;;;;-0.90;99.90;;;;;;5096303;28;20026;-58
2024/01/19 08:09:25;;;;;;;;;;;-0.90;99.90;;;;;;5092370;28;19931;-57
2024/01/19 08:11:50;;;;;;;;;;;-0.90;99.90;;;;;;5092254;28;19928;-58
2024/01/19 08:14:16;;;;;;;;;;;-0.90;99.90;;;;;;5077585;28;19967;-57
2024/01/19 08:16:42;;;;;;;;;;;-0.90;99.90;;;;;;5088354;28;19985;-58
2024/01/19 08:19:07;;;;;;;;;;;-0.90;99.90;;;;;;5087143;28;19928;-57
2024/01/19 08:21:39;;;;;;;;;;;-0.90;99.90;;;;;;5095313;28;19951;-57
2024/01/19 08:24:05;;;;;;;;;;;-0.90;99.90;;;;;;5095962;28;19939;-56
2024/01/19 08:26:31;;;;;;;;;;;-0.90;99.90;;;;;;5085710;28;20298;-58
2024/01/19 08:28:56;;;;;;;;;;;-0.80;99.90;;;;;;5095425;28;19945;-59
2024/01/19 08:31:22;;;;;;;;;;;-0.90;99.90;;;;;;5070223;28;20402;-59
2024/01/19 08:33:47;;;;;;;;;;;-0.90;99.90;;;;;;5073092;28;19928;-59
2024/01/19 08:36:13;;;;;;;;;;;-0.90;99.90;;;;;;5102283;28;19924;-59
2024/01/19 08:38:38;;;;;;;;;;;-0.90;99.90;;;;;;5077971;28;20050;-59
2024/01/19 08:41:04;;;;;;;;;;;-0.90;99.90;;;;;;5072973;28;19950;-59
2024/01/19 08:43:30;;;;;;;;;;;-0.90;99.90;;;;;;5076451;28;19927;-59
2024/01/19 08:45:56;;;;;;;;;;;-0.90;99.90;;;;;;5078738;28;19923;-59
2024/01/19 08:48:21;;;;;;;;;;;-0.90;99.90;;;;;;5093770;28;19955;-58
2024/01/19 08:50:47;;;;;;;;;;;-0.80;99.90;;;;;;5075294;28;19992;-59
2024/01/19 08:53:12;;;;;;;;;;;-0.80;99.90;;;;;;5079235;28;20090;-59
2024/01/19 08:55:39;;;;;;;;;;;-0.80;99.90;;;;;;5093160;28;20377;-58
2024/01/19 08:58:05;;;;;;;;;;;-0.80;99.90;;;;;;5081044;27;19932;-59
2024/01/19 09:00:30;;;;;;;;;;;-0.70;99.90;;;;;;5093262;27;19988;-59
2024/01/19 09:02:56;;;;;;;;;;;-0.70;99.90;;;;;;5098593;28;19951;-59
2024/01/19 09:05:22;;;;;;;;;;;-0.70;99.90;;;;;;5094456;28;19994;-59
2024/01/19 09:07:47;;;;;;;;;;;-0.60;99.90;;;;;;5094720;28;19924;-58
2024/01/19 09:10:13;;;;;;;;;;;-0.60;99.90;;;;;;5069609;28;19928;-59
2024/01/19 09:12:38;;;;;;;;;;;-0.40;99.90;;;;;;5088589;28;20366;-59
2024/01/19 09:15:04;;;;;;;;;;;-0.50;99.90;;;;;;5089264;28;19989;-59
2024/01/19 09:17:30;;;;;;;;;;;-0.40;99.90;;;;;;5067466;28;20026;-59
2024/01/19 09:19:55;;;;;;;;;;;-0.30;99.90;;;;;;5069447;28;19977;-59
2024/01/19 09:22:21;;;;;;;;;;;-0.30;99.90;;;;;;5073121;28;19927;-59
2024/01/19 09:24:47;;;;;;;;;;;-0.20;99.90;;;;;;5067733;28;20364;-59
2024/01/19 09:27:12;;;;;;;;;;;-0.10;99.90;;;;;;5091357;28;19938;-59
2024/01/19 09:29:38;;;;;;;;;;;0.00;99.90;;;;;;5070319;28;20026;-58
2024/01/19 09:32:03;;;;;;;;;;;0.00;99.90;;;;;;5085286;28;20373;-59
2024/01/19 09:34:29;;;;;;;;;;;0.10;99.90;;;;;;5089489;28;19934;-58
2024/01/19 09:36:55;;;;;;;;;;;0.20;99.90;;;;;;5070674;28;19928;-59
2024/01/19 09:39:22;;;;;;;;;;;0.20;99.90;;;;;;5093424;28;19923;-59
2024/01/19 09:41:47;;;;;;;;;;;0.30;99.90;;;;;;5077076;28;20507;-60
2024/01/19 09:44:13;;;;;;;;;;;0.40;99.90;;;;;;5073695;28;19923;-59
2024/01/19 09:46:48;;;;;;;;;;;0.60;99.90;;;;;;5095591;28;20482;-59
2024/01/19 09:49:19;;;;;;;;;;;0.70;99.90;;;;;;5098289;28;20435;-59
2024/01/19 09:51:57;;;;;;;;;;;0.80;99.90;;;;;;5075807;28;20393;-59
2024/01/19 09:54:41;;;;;;;;;;;0.90;99.90;;;;;;5083578;28;19927;-60
2024/01/19 09:57:06;;;;;;;;;;;1.00;99.90;;;;;;5088431;28;19924;-59
2024/01/19 09:59:32;;;;;;;;;;;1.20;99.90;;;;;;5079673;28;19924;-59
2024/01/19 10:01:59;;;;;;;;;;;1.30;99.90;;;;;;5078871;28;19923;-60
2024/01/19 10:04:25;;;;;;;;;;;1.40;99.90;;;;;;5089899;28;20501;-60
2024/01/19 10:06:51;;;;;;;;;;;1.60;99.90;;;;;;5093856;28;19952;-59
2024/01/19 10:09:18;;;;;;;;;;;1.70;99.90;;;;;;5091686;27;19990;-59
2024/01/19 10:11:53;;;;;;;;;;;1.80;99.90;;;;;;5086803;28;20374;-59
2024/01/19 10:14:19;;;;;;;;;;;2.00;99.90;;;;;;5093815;27;19928;-60
2024/01/19 10:16:47;;;;;;;;;;;2.10;99.90;;;;;;5085775;28;19946;-60
2024/01/19 10:19:14;;;;;;;;;;;2.10;99.90;;;;;;5091355;28;20279;-60
2024/01/19 10:21:40;;;;;;;;;;;2.10;99.90;;;;;;5088196;28;20968;-60
2024/01/19 10:24:11;;;;;;;;;;;2.10;99.90;;;;;;5088151;28;20831;-59
2024/01/19 10:26:37;;;;;;;;;;;2.10;99.90;;;;;;5093679;28;19920;-60
2024/01/19 10:29:16;;;;;;;;;;;2.30;99.90;;;;;;5090358;28;19923;-60
2024/01/19 10:31:44;;;;;;;;;;;2.50;99.90;;;;;;5093152;28;19931;-59
2024/01/19 10:34:20;;;;;;;;;;;2.60;99.90;;;;;;5088916;28;19977;-60
2024/01/19 10:36:46;;;;;;;;;;;2.70;99.90;;;;;;5085622;28;19928;-61
2024/01/19 10:39:16;;;;;;;;;;;2.80;99.90;;;;;;5087927;28;19951;-59
2024/01/19 10:41:43;;;;;;;;;;;3.00;99.90;;;;;;5087084;28;19988;-60
2024/01/19 10:44:16;;;;;;;;;;;3.10;99.90;;;;;;5083799;28;20298;-60
2024/01/19 10:46:42;;;;;;;;;;;3.20;99.90;;;;;;5087479;28;19935;-59
2024/01/19 10:49:08;;;;;;;;;;;3.20;99.90;;;;;;5081139;28;19995;-59
2024/01/19 10:51:34;;;;;;;;;;;3.40;99.90;;;;;;5074380;28;19924;-60
2024/01/19 10:54:02;;;;;;;;;;;3.50;99.90;;;;;;5083070;28;20339;-59
2024/01/19 10:56:28;;;;;;;;;;;3.50;99.90;;;;;;5082423;28;19928;-60
2024/01/19 10:58:53;;;;;;;;;;;3.60;99.90;;;;;;5084306;28;21494;-59
2024/01/19 11:01:19;;;;;;;;;;;3.70;99.90;;;;;;5057298;28;20447;-59
2024/01/19 11:03:45;;;;;;;;;;;3.90;99.90;;;;;;5072289;28;20018;-60
2024/01/19 11:06:11;;;;;;;;;;;3.90;99.90;;;;;;5066749;28;19939;-59
2024/01/19 11:08:37;;;;;;;;;;;4.10;99.90;;;;;;5069215;28;20543;-60
2024/01/19 11:11:03;;;;;;;;;;;4.10;99.90;;;;;;5072859;28;21001;-59
2024/01/19 11:13:30;;;;;;;;;;;4.20;99.90;;;;;;5089168;28;19923;-60
2024/01/19 11:15:58;;;;;;;;;;;4.20;99.90;;;;;;5092748;28;19923;-60
2024/01/19 11:18:27;;;;;;;;;;;4.30;99.90;;;;;;5065239;28;19924;-60
2024/01/19 11:20:52;;;;;;;;;;;4.30;99.90;;;;;;5065653;28;19923;-60
2024/01/19 11:23:18;;;;;;;;;;;4.30;99.90;;;;;;5092496;28;19928;-59
2024/01/19 11:26:01;;;;;;;;;;;4.40;99.90;;;;;;5071376;28;20393;-59
2024/01/19 11:28:34;;;;;;;;;;;4.40;99.90;;;;;;5094040;28;20332;-59
2024/01/19 11:31:17;;;;;;;;;;;4.50;99.90;;;;;;5075191;28;19934;-59
2024/01/19 11:33:43;;;;;;;;;;;4.50;99.90;;;;;;5056326;28;19923;-60
2024/01/19 11:36:11;;;;;;;;;;;4.40;99.90;;;;;;5066291;28;19919;-59
2024/01/19 11:38:41;;;;;;;;;;;4.40;99.90;;;;;;5088192;28;19927;-59
2024/01/19 11:41:06;;;;;;;;;;;4.30;99.90;;;;;;5068190;28;19927;-62
2024/01/19 11:43:39;;;;;;;;;;;4.30;99.90;;;;;;5054017;28;19986;-59
2024/01/19 11:46:05;;;;;;;;;;;4.20;99.90;;;;;;5084340;28;19923;-60
2024/01/19 11:48:38;;;;;;;;;;;4.20;99.90;;;;;;5073527;28;19935;-60
2024/01/19 11:51:04;;;;;;;;;;;4.20;99.90;;;;;;5068982;28;19920;-58
2024/01/19 11:53:50;;;;;;;;;;;4.20;99.90;;;;;;5067097;28;19928;-60
2024/01/19 11:56:24;;;;;;;;;;;4.20;99.90;;;;;;5076049;28;20084;-59
2024/01/19 11:58:50;;;;;;;;;;;4.20;99.90;;;;;;5070555;28;19984;-60
2024/01/19 12:01:16;;;;;;;;;;;4.30;99.90;;;;;;5088092;28;19928;-60
2024/01/19 12:03:42;;;;;;;;;;;4.30;99.90;;;;;;5101104;27;19924;-61
2024/01/19 12:06:08;;;;;;;;;;;4.30;99.90;;;;;;5083496;28;19924;-59
2024/01/19 12:08:34;;;;;;;;;;;4.30;99.90;;;;;;5085363;28;19924;-60
2024/01/19 12:11:10;;;;;;;;;;;4.30;99.90;;;;;;5107508;28;20348;-59
2024/01/19 12:13:36;;;;;;;;;;;4.30;99.90;;;;;;5089179;28;19923;-60
2024/01/19 12:16:03;;;;;;;;;;;4.30;99.90;;;;;;5095305;28;20018;-60
2024/01/19 12:18:30;;;;;;;;;;;4.30;99.90;;;;;;5081422;28;19988;-60
2024/01/19 12:20:56;;;;;;;;;;;4.30;99.90;;;;;;5082033;28;19924;-59
2024/01/19 12:23:22;;;;;;;;;;;4.30;99.90;;;;;;5104531;27;20279;-60
2024/01/19 12:25:48;;;;;;;;;;;4.20;99.90;;;;;;5079429;28;20370;-60
2024/01/19 12:28:15;;;;;;;;;;;4.30;99.90;;;;;;5091035;28;19930;-61
2024/01/19 12:30:42;;;;;;;;;;;4.20;99.90;;;;;;5097709;28;19964;-60
2024/01/19 12:33:30;;;;;;;;;;;4.20;99.90;;;;;;5096492;28;19927;-60
2024/01/19 12:36:03;;;;;;;;;;;4.10;99.90;;;;;;5100499;28;19927;-61
2024/01/19 12:38:29;;;;;;;;;;;4.10;99.90;;;;;;5063357;28;20069;-60
2024/01/19 12:40:56;;;;;;;;;;;4.10;99.90;;;;;;5085177;28;20924;-60
2024/01/19 12:43:22;;;;;;;;;;;4.10;99.90;;;;;;5100166;28;19927;-61
2024/01/19 12:45:47;;;;;;;;;;;4.10;99.90;;;;;;5064977;28;19927;-60
2024/01/19 12:48:15;;;;;;;;;;;4.10;99.90;;;;;;5102091;27;19971;-59
2024/01/19 12:50:40;;;;;;;;;;;4.10;99.90;;;;;;5078827;27;19990;-60
2024/01/19 12:53:06;;;;;;;;;;;4.20;99.90;;;;;;5078463;27;19927;-61
2024/01/19 12:55:32;;;;;;;;;;;4.20;99.90;;;;;;5106713;27;19927;-59
2024/01/19 12:57:58;;;;;;;;;;;4.20;99.90;;;;;;5105416;27;19976;-60
2024/01/19 13:00:25;;;;;;;;;;;4.20;99.90;;;;;;5084912;27;19932;-60
2024/01/19 13:02:51;;;;;;;;;;;4.30;99.90;;;;;;5107310;27;20428;-60
2024/01/19 13:05:21;;;;;;;;;;;4.40;99.90;;;;;;5085010;27;19978;-59
2024/01/19 13:07:47;;;;;;;;;;;4.50;99.90;;;;;;5074622;27;19928;-60
2024/01/19 13:10:19;;;;;;;;;;;4.60;99.90;;;;;;5085757;27;20386;-60
2024/01/19 13:12:48;;;;;;;;;;;4.70;99.90;;;;;;5105516;27;20047;-59
2024/01/19 13:15:16;;;;;;;;;;;4.80;99.90;;;;;;5092299;27;19934;-59
2024/01/19 13:17:43;;;;;;;;;;;4.90;99.90;;;;;;5085191;27;19977;-60
2024/01/19 13:20:25;;;;;;;;;;;5.00;99.90;;;;;;5086109;27;19924;-59
2024/01/19 13:22:50;;;;;;;;;;;5.10;99.90;;;;;;5090123;27;19923;-59
2024/01/19 13:25:16;;;;;;;;;;;5.20;99.90;;;;;;5106163;27;19947;-59
2024/01/19 13:27:42;;;;;;;;;;;5.20;99.90;;;;;;5089558;27;19974;-59
2024/01/19 13:30:07;;;;;;;;;;;5.30;99.90;;;;;;5082898;27;19928;-59
2024/01/19 13:32:36;;;;;;;;;;;5.30;99.90;;;;;;5105650;27;19923;-58
2024/01/19 13:35:03;;;;;;;;;;;5.30;99.90;;;;;;5101532;27;20056;-60
2024/01/19 13:37:28;;;;;;;;;;;5.30;99.90;;;;;;5066703;27;20006;-60
2024/01/19 13:39:56;;;;;;;;;;;5.30;99.90;;;;;;5106923;27;20430;-59
2024/01/19 13:42:23;;;;;;;;;;;5.30;99.90;;;;;;5103902;27;20425;-59
2024/01/19 13:44:48;;;;;;;;;;;5.30;99.90;;;;;;5092317;27;19962;-59
2024/01/19 13:47:14;;;;;;;;;;;5.20;99.90;;;;;;5067987;27;20011;-59
2024/01/19 13:49:40;;;;;;;;;;;5.20;99.90;;;;;;5110992;27;19973;-59
2024/01/19 13:52:07;;;;;;;;;;;5.10;99.90;;;;;;5107455;27;20002;-59
2024/01/19 13:54:32;;;;;;;;;;;5.00;99.90;;;;;;5109491;27;19920;-58
2024/01/19 13:56:58;;;;;;;;;;;4.90;99.90;;;;;;5102798;27;19934;-59
2024/01/19 13:59:23;;;;;;;;;;;4.90;99.90;;;;;;5070810;28;19928;-58
2024/01/19 14:01:49;;;;;;;;;;;4.80;99.90;;;;;;5071338;28;19932;-59
2024/01/19 14:04:15;;;;;;;;;;;4.70;99.90;;;;;;5081606;27;19926;-59
2024/01/19 14:06:41;;;;;;;;;;;4.60;99.90;;;;;;5082472;28;19974;-58
2024/01/19 14:09:07;;;;;;;;;;;4.60;99.90;;;;;;5079824;27;19920;-58
2024/01/19 14:11:32;;;;;;;;;;;4.50;99.90;;;;;;5086100;27;19981;-58
2024/01/19 14:13:58;;;;;;;;;;;4.50;99.90;;;;;;5075402;27;19924;-59
2024/01/19 14:16:24;;;;;;;;;;;4.40;99.90;;;;;;5078914;27;20353;-59
2024/01/19 14:18:49;;;;;;;;;;;4.30;99.90;;;;;;5083121;27;19932;-58